Time;durP1;ratioP1;P1;durP2;ratioP2;P2;SDS_P1;SDS_P2;PMS_P1;PMS_P2;Temp;Humidity;BMP_temperature;BMP_pressure;BME280_temperature;BME280_humidity;BME280_pressure;Samples;Min_cycle;Max_cycle;Signal;HPM_P1;HPM_P2
2022/11/27 00:02:22;;;;;;;74.88;27.23;;;;;;;;;;6265792;28;20480;-63
2022/11/27 00:05:23;;;;;;;85.40;28.08;;;;;;;;;;6266958;28;20389;-78
2022/11/27 00:08:24;;;;;;;81.63;26.90;;;;;;;;;;6265821;28;20136;-60
2022/11/27 00:11:27;;;;;;;74.72;27.80;;;;;;;;;;6258130;28;20163;-61
2022/11/27 00:14:27;;;;;;;87.03;32.63;;;;;;;;;;6265607;28;20087;-60
2022/11/27 00:17:28;;;;;;;99.65;33.65;;;;;;;;;;6266131;28;21942;-61
2022/11/27 00:20:28;;;;;;;83.47;28.75;;;;;;;;;;6265803;28;20377;-81
2022/11/27 00:23:29;;;;;;;81.68;27.05;;;;;;;;;;6263543;28;20057;-61
2022/11/27 00:26:31;;;;;;;84.35;28.42;;;;;;;;;;6259504;28;20402;-78
2022/11/27 00:29:31;;;;;;;81.47;26.55;;;;;;;;;;6263320;28;20047;-61
2022/11/27 00:32:32;;;;;;;78.07;26.85;;;;;;;;;;6264343;28;20468;-66
2022/11/27 00:35:33;;;;;;;79.47;28.90;;;;;;;;;;6265811;28;20057;-69
2022/11/27 00:38:34;;;;;;;77.35;26.02;;;;;;;;;;6267465;28;20048;-79
2022/11/27 00:41:34;;;;;;;65.82;23.55;;;;;;;;;;6269354;28;20051;-61
2022/11/27 00:44:35;;;;;;;72.47;24.02;;;;;;;;;;6271796;28;20045;-61
2022/11/27 00:47:36;;;;;;;66.53;22.27;;;;;;;;;;6259308;28;20053;-61
2022/11/27 00:50:36;;;;;;;72.82;23.60;;;;;;;;;;6246402;28;20049;-61
2022/11/27 00:53:37;;;;;;;71.93;22.90;;;;;;;;;;6246218;28;20484;-73
2022/11/27 00:56:38;;;;;;;67.93;23.25;;;;;;;;;;6251796;28;20057;-61
2022/11/27 00:59:39;;;;;;;64.87;23.70;;;;;;;;;;6245676;28;20056;-61
2022/11/27 01:02:39;;;;;;;72.60;25.30;;;;;;;;;;6247040;28;20045;-61
2022/11/27 01:05:40;;;;;;;78.28;24.88;;;;;;;;;;6246215;28;20049;-67
2022/11/27 01:08:41;;;;;;;73.75;25.05;;;;;;;;;;6259397;28;20094;-59
2022/11/27 01:11:42;;;;;;;76.55;25.77;;;;;;;;;;6250340;28;20053;-75
2022/11/27 01:14:43;;;;;;;74.35;25.13;;;;;;;;;;6254749;28;20056;-60
2022/11/27 01:17:43;;;;;;;84.85;26.52;;;;;;;;;;6247633;28;20515;-70
2022/11/27 01:20:44;;;;;;;74.30;24.88;;;;;;;;;;6251020;28;20487;-72
2022/11/27 01:23:46;;;;;;;71.35;24.83;;;;;;;;;;6255887;28;20069;-61
2022/11/27 01:26:46;;;;;;;69.03;23.73;;;;;;;;;;6251122;28;20142;-61
2022/11/27 01:29:47;;;;;;;81.63;27.77;;;;;;;;;;6250942;28;20049;-60
2022/11/27 01:32:47;;;;;;;78.55;25.60;;;;;;;;;;6249905;28;20051;-61
2022/11/27 01:35:59;;;;;;;85.45;27.58;;;;;;;;;;6259363;28;20128;-66
2022/11/27 01:39:01;;;;;;;80.57;25.85;;;;;;;;;;6250018;28;20061;-59
2022/11/27 01:42:02;;;;;;;78.78;27.50;;;;;;;;;;6250533;28;20045;-62
2022/11/27 01:45:03;;;;;;;87.07;29.88;;;;;;;;;;6250765;28;20084;-62
2022/11/27 01:48:03;;;;;;;94.68;32.28;;;;;;;;;;6250488;28;20064;-61
2022/11/27 01:51:04;;;;;;;89.20;31.98;;;;;;;;;;6250984;28;20126;-60
2022/11/27 01:54:07;;;;;;;84.85;29.65;;;;;;;;;;6251288;28;20049;-60
2022/11/27 01:57:35;;;;;;;92.93;28.33;;;;;;;;;;6262477;28;20049;-61
2022/11/27 02:00:37;;;;;;;81.00;29.23;;;;;;;;;;6253541;28;20429;-60
2022/11/27 02:03:37;;;;;;;88.90;29.00;;;;;;;;;;6247674;28;20179;-61
2022/11/27 02:06:38;;;;;;;90.70;30.10;;;;;;;;;;6247708;28;20049;-61
2022/11/27 02:09:39;;;;;;;78.47;27.92;;;;;;;;;;6249750;28;20104;-60
2022/11/27 02:12:52;;;;;;;92.88;27.63;;;;;;;;;;6250154;28;20048;-61
2022/11/27 02:16:03;;;;;;;77.53;27.50;;;;;;;;;;6247524;28;20069;-62
2022/11/27 02:19:16;;;;;;;76.03;27.42;;;;;;;;;;6261519;28;20736;-61
2022/11/27 02:22:34;;;;;;;96.65;34.88;;;;;;;;;;6259131;28;20192;-64
2022/11/27 02:25:44;;;;;;;131.05;44.83;;;;;;;;;;6259609;28;20049;-62
2022/11/27 02:28:57;;;;;;;139.48;47.75;;;;;;;;;;6250364;28;20045;-61
2022/11/27 02:32:18;;;;;;;126.10;46.17;;;;;;;;;;6250981;28;20052;-61
2022/11/27 02:35:38;;;;;;;132.63;43.97;;;;;;;;;;6250147;28;20214;-60
2022/11/27 02:38:52;;;;;;;130.93;45.85;;;;;;;;;;6251501;28;20158;-62
2022/11/27 02:41:58;;;;;;;137.27;45.03;;;;;;;;;;6251086;28;20139;-61
2022/11/27 02:45:02;;;;;;;123.38;43.53;;;;;;;;;;6250008;28;20053;-62
2022/11/27 02:48:05;;;;;;;125.47;43.80;;;;;;;;;;6259808;28;20049;-62
2022/11/27 02:51:06;;;;;;;118.40;41.50;;;;;;;;;;6250090;28;20049;-60
2022/11/27 02:54:12;;;;;;;111.35;41.13;;;;;;;;;;6265910;28;20143;-59
2022/11/27 02:57:15;;;;;;;113.88;40.80;;;;;;;;;;6248616;28;20059;-62
2022/11/27 03:00:16;;;;;;;114.28;41.05;;;;;;;;;;6259910;28;20045;-62
2022/11/27 03:03:22;;;;;;;122.50;41.23;;;;;;;;;;6259240;28;20052;-73
2022/11/27 03:06:28;;;;;;;118.40;40.83;;;;;;;;;;6249985;28;20148;-62
2022/11/27 03:09:42;;;;;;;121.07;42.17;;;;;;;;;;6256090;28;20053;-67
2022/11/27 03:12:43;;;;;;;124.03;42.70;;;;;;;;;;6261923;28;20055;-73
2022/11/27 03:15:56;;;;;;;125.70;42.40;;;;;;;;;;6264943;28;20468;-61
2022/11/27 03:19:21;;;;;;;122.30;43.20;;;;;;;;;;6256472;28;20419;-61
2022/11/27 03:22:22;;;;;;;136.07;47.00;;;;;;;;;;6257867;28;20052;-61
2022/11/27 03:25:23;;;;;;;137.88;47.85;;;;;;;;;;6245127;28;20041;-65
2022/11/27 03:28:26;;;;;;;121.28;44.00;;;;;;;;;;6249865;28;20466;-60
2022/11/27 03:31:26;;;;;;;119.95;42.47;;;;;;;;;;6236681;28;20061;-62
2022/11/27 03:34:28;;;;;;;120.00;40.55;;;;;;;;;;6248078;28;20490;-61
2022/11/27 03:37:28;;;;;;;115.25;40.38;;;;;;;;;;6248921;28;20044;-61
2022/11/27 03:40:48;;;;;;;119.05;38.03;;;;;;;;;;6252470;28;20107;-61
2022/11/27 03:44:24;;;;;;;115.90;38.50;;;;;;;;;;6247896;28;20103;-64
2022/11/27 03:47:40;;;;;;;113.80;38.97;;;;;;;;;;6250393;28;20051;-61
2022/11/27 03:51:17;;;;;;;121.47;39.33;;;;;;;;;;6252236;28;20493;-61
2022/11/27 03:54:49;;;;;;;122.90;41.72;;;;;;;;;;6247606;28;20128;-65
2022/11/27 03:57:59;;;;;;;120.38;41.25;;;;;;;;;;6261772;28;20056;-61
2022/11/27 04:01:03;;;;;;;118.43;41.15;;;;;;;;;;6248204;28;20078;-61
2022/11/27 04:04:03;;;;;;;111.85;38.55;;;;;;;;;;6248253;28;20094;-61
2022/11/27 04:07:05;;;;;;;115.47;39.20;;;;;;;;;;6245913;28;22197;-61
2022/11/27 04:10:06;;;;;;;123.38;41.17;;;;;;;;;;6245565;28;20038;-61
2022/11/27 04:13:07;;;;;;;119.15;41.67;;;;;;;;;;6247697;28;20042;-61
2022/11/27 04:16:08;;;;;;;111.40;41.97;;;;;;;;;;6243968;28;20052;-61
2022/11/27 04:19:09;;;;;;;122.63;44.10;;;;;;;;;;6252785;28;20131;-75
2022/11/27 04:22:09;;;;;;;140.45;50.90;;;;;;;;;;6250438;28;20076;-68
2022/11/27 04:25:10;;;;;;;135.45;50.50;;;;;;;;;;6251814;28;20049;-60
2022/11/27 04:28:10;;;;;;;141.30;49.00;;;;;;;;;;6252694;28;20060;-61
2022/11/27 04:31:11;;;;;;;146.52;52.05;;;;;;;;;;6252322;28;20442;-61
2022/11/27 04:34:11;;;;;;;147.27;52.08;;;;;;;;;;6252257;28;20052;-60
2022/11/27 04:37:12;;;;;;;147.10;52.67;;;;;;;;;;6254083;28;20084;-61
2022/11/27 04:40:13;;;;;;;153.77;54.40;;;;;;;;;;6251842;28;20044;-61
2022/11/27 04:43:13;;;;;;;135.18;51.70;;;;;;;;;;6251829;28;20037;-65
2022/11/27 04:46:14;;;;;;;143.80;54.42;;;;;;;;;;6252208;28;20034;-60
2022/11/27 04:49:15;;;;;;;140.63;51.78;;;;;;;;;;6260682;28;20426;-61
2022/11/27 04:52:15;;;;;;;128.60;50.42;;;;;;;;;;6265162;28;20555;-69
2022/11/27 04:55:16;;;;;;;140.80;53.58;;;;;;;;;;6260532;28;20855;-61
2022/11/27 04:58:16;;;;;;;149.88;56.58;;;;;;;;;;6252520;28;20052;-61
2022/11/27 05:01:17;;;;;;;148.65;54.75;;;;;;;;;;6250548;28;20484;-60
2022/11/27 05:04:18;;;;;;;142.02;55.28;;;;;;;;;;6249065;28;20717;-61
2022/11/27 05:07:18;;;;;;;161.90;60.03;;;;;;;;;;6252757;28;20052;-61
2022/11/27 05:10:19;;;;;;;159.20;56.85;;;;;;;;;;6251302;28;20057;-61
2022/11/27 05:13:19;;;;;;;148.00;55.30;;;;;;;;;;6251939;28;20110;-61
2022/11/27 05:16:20;;;;;;;146.60;54.28;;;;;;;;;;6250408;28;20053;-61
2022/11/27 05:19:23;;;;;;;146.20;54.08;;;;;;;;;;6253635;28;20089;-61
2022/11/27 05:22:23;;;;;;;153.88;55.80;;;;;;;;;;6253559;28;20049;-61
2022/11/27 05:25:24;;;;;;;151.02;53.33;;;;;;;;;;6249323;28;20059;-70
2022/11/27 05:28:25;;;;;;;140.65;53.63;;;;;;;;;;6257352;28;20056;-69
2022/11/27 05:31:26;;;;;;;138.73;50.45;;;;;;;;;;6249573;28;20073;-61
2022/11/27 05:34:28;;;;;;;141.95;48.20;;;;;;;;;;6252692;28;20056;-61
2022/11/27 05:37:29;;;;;;;129.23;48.05;;;;;;;;;;6250578;28;20387;-61
2022/11/27 05:40:30;;;;;;;130.75;46.08;;;;;;;;;;6265365;28;20045;-62
2022/11/27 05:43:30;;;;;;;132.55;49.20;;;;;;;;;;6260021;28;20040;-61
2022/11/27 05:46:31;;;;;;;138.85;50.20;;;;;;;;;;6251282;28;20056;-75
2022/11/27 05:49:32;;;;;;;134.23;46.75;;;;;;;;;;6255630;28;20522;-61
2022/11/27 05:52:32;;;;;;;139.43;49.63;;;;;;;;;;6244369;28;20053;-61
2022/11/27 05:55:33;;;;;;;137.00;51.55;;;;;;;;;;6250118;28;20046;-61
2022/11/27 05:58:35;;;;;;;136.25;49.20;;;;;;;;;;6259696;28;20045;-72
2022/11/27 06:01:35;;;;;;;128.35;47.50;;;;;;;;;;6253030;28;20045;-61
2022/11/27 06:04:36;;;;;;;126.60;46.30;;;;;;;;;;6252453;28;20518;-61
2022/11/27 06:07:36;;;;;;;131.70;49.50;;;;;;;;;;6261238;28;20081;-62
2022/11/27 06:10:38;;;;;;;130.13;51.58;;;;;;;;;;6261532;28;20404;-61
2022/11/27 06:13:41;;;;;;;133.75;47.35;;;;;;;;;;6251807;28;20074;-64
2022/11/27 06:16:42;;;;;;;136.60;51.33;;;;;;;;;;6261812;28;20053;-62
2022/11/27 06:19:42;;;;;;;137.60;52.92;;;;;;;;;;6259682;28;20053;-61
2022/11/27 06:22:43;;;;;;;141.82;52.40;;;;;;;;;;6266076;28;20075;-61
2022/11/27 06:25:44;;;;;;;132.55;52.35;;;;;;;;;;6268263;28;20072;-60
2022/11/27 06:28:45;;;;;;;142.02;51.58;;;;;;;;;;6261588;28;20041;-77
2022/11/27 06:31:46;;;;;;;146.00;54.92;;;;;;;;;;6268175;28;20045;-61
2022/11/27 06:34:46;;;;;;;162.68;58.92;;;;;;;;;;6268429;28;20056;-61
2022/11/27 06:37:47;;;;;;;171.70;60.15;;;;;;;;;;6268372;28;20393;-59
2022/11/27 06:40:47;;;;;;;168.32;60.90;;;;;;;;;;6267460;28;20177;-60
2022/11/27 06:43:48;;;;;;;170.18;61.03;;;;;;;;;;6267469;28;20045;-60
2022/11/27 06:46:49;;;;;;;176.80;61.92;;;;;;;;;;6267515;28;20045;-61
2022/11/27 06:49:50;;;;;;;151.00;56.10;;;;;;;;;;6266145;28;20506;-61
2022/11/27 06:52:50;;;;;;;143.35;52.97;;;;;;;;;;6265220;28;20048;-60
2022/11/27 06:55:51;;;;;;;237.70;74.45;;;;;;;;;;6259482;28;20048;-61
2022/11/27 06:58:53;;;;;;;177.27;60.03;;;;;;;;;;6249193;28;20033;-60
2022/11/27 07:01:54;;;;;;;145.18;49.72;;;;;;;;;;6268439;28;20041;-61
2022/11/27 07:04:54;;;;;;;135.25;49.20;;;;;;;;;;6250318;28;20052;-60
2022/11/27 07:07:56;;;;;;;147.05;53.75;;;;;;;;;;6249052;28;20041;-67
2022/11/27 07:11:02;;;;;;;238.98;81.10;;;;;;;;;;6258824;28;20136;-60
2022/11/27 07:14:04;;;;;;;272.50;93.25;;;;;;;;;;6247009;28;20061;-61
2022/11/27 07:17:04;;;;;;;164.98;60.03;;;;;;;;;;6262370;28;20563;-68
2022/11/27 07:20:06;;;;;;;167.55;58.85;;;;;;;;;;6264298;28;20049;-65
2022/11/27 07:23:06;;;;;;;215.07;75.88;;;;;;;;;;6266812;28;20048;-68
2022/11/27 07:26:13;;;;;;;147.68;52.40;;;;;;;;;;6267136;28;20432;-69
2022/11/27 07:29:14;;;;;;;130.65;48.20;;;;;;;;;;6264344;28;20071;-59
2022/11/27 07:32:14;;;;;;;133.50;48.45;;;;;;;;;;6260040;28;20044;-63
2022/11/27 07:35:15;;;;;;;117.00;45.03;;;;;;;;;;6259095;28;20451;-61
2022/11/27 07:38:16;;;;;;;131.00;47.25;;;;;;;;;;6266576;28;20495;-73
2022/11/27 07:41:16;;;;;;;129.75;47.15;;;;;;;;;;6264787;28;20527;-68
2022/11/27 07:44:17;;;;;;;115.75;44.97;;;;;;;;;;6265800;28;20114;-74
2022/11/27 07:47:17;;;;;;;110.40;42.22;;;;;;;;;;6255962;28;20049;-61
2022/11/27 07:50:18;;;;;;;100.50;39.28;;;;;;;;;;6262199;28;20044;-62
2022/11/27 07:53:19;;;;;;;98.53;37.28;;;;;;;;;;6266043;28;20464;-61
2022/11/27 07:56:20;;;;;;;90.45;33.42;;;;;;;;;;6265834;28;20091;-65
2022/11/27 07:59:20;;;;;;;114.13;39.97;;;;;;;;;;6264839;28;20053;-65
2022/11/27 08:02:21;;;;;;;109.45;39.38;;;;;;;;;;6266301;28;20599;-62
2022/11/27 08:05:22;;;;;;;108.50;40.13;;;;;;;;;;6265147;28;20124;-65
2022/11/27 08:08:23;;;;;;;78.95;29.88;;;;;;;;;;6266885;28;20056;-62
2022/11/27 08:11:34;;;;;;;92.25;35.17;;;;;;;;;;6264998;28;20114;-64
2022/11/27 08:14:34;;;;;;;94.15;35.97;;;;;;;;;;6266177;28;20044;-63
2022/11/27 08:17:35;;;;;;;94.93;38.10;;;;;;;;;;6267158;28;20056;-61
2022/11/27 08:20:36;;;;;;;90.53;33.80;;;;;;;;;;6259844;28;20059;-62
2022/11/27 08:23:37;;;;;;;101.55;37.95;;;;;;;;;;6266223;28;20053;-62
2022/11/27 08:26:40;;;;;;;89.53;33.65;;;;;;;;;;6247897;28;20049;-65
2022/11/27 08:29:40;;;;;;;93.68;36.17;;;;;;;;;;6264523;28;20132;-74
2022/11/27 08:32:42;;;;;;;90.60;35.10;;;;;;;;;;6265728;28;20064;-67
2022/11/27 08:35:47;;;;;;;94.57;37.17;;;;;;;;;;6265364;28;20995;-65
2022/11/27 08:38:48;;;;;;;83.18;30.33;;;;;;;;;;6265232;28;20463;-68
2022/11/27 08:41:49;;;;;;;85.20;30.65;;;;;;;;;;6264537;28;20059;-67
2022/11/27 08:44:49;;;;;;;86.53;32.00;;;;;;;;;;6265849;28;20135;-65
2022/11/27 08:47:50;;;;;;;95.30;39.15;;;;;;;;;;6265891;28;20045;-70
2022/11/27 08:50:51;;;;;;;87.65;33.53;;;;;;;;;;6263498;28;20102;-65
2022/11/27 08:53:52;;;;;;;95.88;36.30;;;;;;;;;;6265829;28;20048;-62
2022/11/27 08:56:52;;;;;;;88.47;32.63;;;;;;;;;;6265101;28;20381;-63
2022/11/27 08:59:53;;;;;;;99.70;38.45;;;;;;;;;;6266968;28;20041;-64
2022/11/27 09:02:54;;;;;;;102.50;36.97;;;;;;;;;;6270057;28;20080;-62
2022/11/27 09:05:54;;;;;;;102.30;38.85;;;;;;;;;;6269219;28;20055;-65
2022/11/27 09:08:57;;;;;;;100.50;36.58;;;;;;;;;;6269994;28;20072;-74
2022/11/27 09:11:57;;;;;;;98.97;38.67;;;;;;;;;;6264070;28;20045;-61
2022/11/27 09:14:58;;;;;;;106.22;40.85;;;;;;;;;;6264986;28;20810;-70
2022/11/27 09:17:59;;;;;;;102.15;38.83;;;;;;;;;;6269040;28;20049;-72
2022/11/27 09:21:02;;;;;;;113.68;43.20;;;;;;;;;;6262357;28;20041;-68
2022/11/27 09:24:03;;;;;;;94.43;34.30;;;;;;;;;;6253452;28;20139;-61
2022/11/27 09:27:04;;;;;;;89.37;33.23;;;;;;;;;;6263120;28;20048;-62
2022/11/27 09:30:06;;;;;;;89.50;33.65;;;;;;;;;;6263415;28;20041;-66
2022/11/27 09:33:07;;;;;;;246.07;70.82;;;;;;;;;;6268645;28;20083;-62
2022/11/27 09:36:13;;;;;;;221.95;65.25;;;;;;;;;;6253364;28;20443;-70
2022/11/27 09:39:15;;;;;;;127.60;46.92;;;;;;;;;;6249940;28;20044;-68
2022/11/27 09:42:47;;;;;;;92.00;32.63;;;;;;;;;;6267869;28;20049;-64
2022/11/27 09:45:56;;;;;;;87.65;34.58;;;;;;;;;;6257141;28;20139;-60
2022/11/27 09:49:01;;;;;;;84.50;30.80;;;;;;;;;;6257048;28;20044;-66
2022/11/27 09:52:08;;;;;;;105.00;36.85;;;;;;;;;;6267521;28;20048;-74
2022/11/27 09:55:32;;;;;;;99.93;35.92;;;;;;;;;;6264689;28;20096;-70
2022/11/27 09:58:36;;;;;;;93.53;34.08;;;;;;;;;;6266678;28;20489;-71
2022/11/27 10:01:36;;;;;;;83.57;32.22;;;;;;;;;;6262397;28;20090;-63
2022/11/27 10:04:37;;;;;;;81.70;29.95;;;;;;;;;;6266866;28;20077;-62
2022/11/27 10:07:59;;;;;;;89.47;34.78;;;;;;;;;;6268712;28;20075;-61
2022/11/27 10:11:00;;;;;;;88.05;33.08;;;;;;;;;;6264422;28;20045;-60
2022/11/27 10:14:05;;;;;;;76.18;31.13;;;;;;;;;;6268081;28;20527;-62
2022/11/27 10:17:15;;;;;;;80.85;31.67;;;;;;;;;;6264191;28;20066;-61
2022/11/27 10:20:38;;;;;;;76.53;28.73;;;;;;;;;;6265311;28;20084;-60
2022/11/27 10:23:52;;;;;;;64.82;29.00;;;;;;;;;;6263462;28;20033;-60
2022/11/27 10:26:57;;;;;;;83.25;32.58;;;;;;;;;;6260104;28;20053;-61
2022/11/27 10:30:00;;;;;;;69.63;31.67;;;;;;;;;;6252809;28;20049;-68
2022/11/27 10:33:02;;;;;;;70.13;28.70;;;;;;;;;;6265811;28;20052;-61
2022/11/27 10:36:04;;;;;;;75.15;31.13;;;;;;;;;;6265502;28;20495;-60
2022/11/27 10:39:14;;;;;;;88.50;34.85;;;;;;;;;;6260890;28;20045;-60
2022/11/27 10:42:26;;;;;;;72.60;29.38;;;;;;;;;;6250596;28;20045;-68
2022/11/27 10:45:38;;;;;;;60.85;25.75;;;;;;;;;;6264284;28;20051;-65
2022/11/27 10:48:39;;;;;;;70.18;30.05;;;;;;;;;;6265334;28;20613;-59
2022/11/27 10:51:40;;;;;;;63.00;27.85;;;;;;;;;;6261699;28;20033;-61
2022/11/27 10:54:44;;;;;;;66.10;26.85;;;;;;;;;;6264767;28;20094;-61
2022/11/27 10:58:08;;;;;;;53.22;23.45;;;;;;;;;;6266493;28;20055;-61
2022/11/27 11:01:13;;;;;;;66.07;28.73;;;;;;;;;;6265411;28;20037;-60
2022/11/27 11:04:19;;;;;;;76.53;30.52;;;;;;;;;;6265657;28;20045;-61
2022/11/27 11:07:26;;;;;;;64.90;26.77;;;;;;;;;;6267738;28;20052;-72
2022/11/27 11:10:36;;;;;;;67.95;26.70;;;;;;;;;;6267664;28;20102;-69
2022/11/27 11:13:40;;;;;;;61.30;25.30;;;;;;;;;;6266587;28;20072;-73
2022/11/27 11:16:42;;;;;;;59.05;23.90;;;;;;;;;;6268193;28;20045;-66
2022/11/27 11:19:44;;;;;;;;;;;;;;;;;;6267248;28;20060;-74
2022/11/27 11:22:46;;;;;;;47.03;20.27;;;;;;;;;;6266558;28;19947;-68
2022/11/27 11:25:53;;;;;;;43.03;16.65;;;;;;;;;;6267387;28;20049;-63
2022/11/27 11:28:56;;;;;;;43.28;18.20;;;;;;;;;;6266694;28;20045;-70
2022/11/27 11:32:05;;;;;;;49.50;21.42;;;;;;;;;;6266918;28;20049;-60
2022/11/27 11:35:28;;;;;;;50.50;20.20;;;;;;;;;;6265506;28;20140;-62
2022/11/27 11:38:32;;;;;;;46.78;17.40;;;;;;;;;;6251324;28;20143;-69
2022/11/27 11:41:37;;;;;;;48.20;19.08;;;;;;;;;;6259646;28;20056;-70
2022/11/27 11:44:39;;;;;;;40.83;16.15;;;;;;;;;;6265333;28;20048;-80
2022/11/27 11:47:46;;;;;;;39.40;16.60;;;;;;;;;;6261552;28;20099;-65
2022/11/27 11:50:54;;;;;;;46.67;20.05;;;;;;;;;;6271021;28;20048;-64
2022/11/27 11:54:16;;;;;;;45.08;18.33;;;;;;;;;;6267119;28;20128;-62
2022/11/27 11:57:23;;;;;;;;;;;;;;;;;;6261963;28;20049;-70
2022/11/27 12:00:29;;;;;;;35.80;16.45;;;;;;;;;;6262988;28;19931;-74
2022/11/27 12:03:57;;;;;;;45.05;21.08;;;;;;;;;;6267151;28;20041;-72
2022/11/27 12:07:13;;;;;;;35.20;14.23;;;;;;;;;;6252285;28;20044;-77
2022/11/27 12:10:45;;;;;;;39.83;18.05;;;;;;;;;;6263451;28;20522;-68
2022/11/27 12:13:58;;;;;;;43.63;18.52;;;;;;;;;;6258257;28;20037;-63
2022/11/27 12:17:20;;;;;;;41.10;16.35;;;;;;;;;;6259774;28;20891;-64
2022/11/27 12:20:40;;;;;;;33.40;13.87;;;;;;;;;;6264189;28;20709;-64
2022/11/27 12:24:19;;;;;;;28.75;12.18;;;;;;;;;;6263115;28;20299;-62
2022/11/27 12:27:47;;;;;;;28.75;12.25;;;;;;;;;;6251431;28;20068;-67
2022/11/27 12:30:54;;;;;;;27.63;11.57;;;;;;;;;;6263347;28;20041;-70
2022/11/27 12:34:09;;;;;;;34.25;14.50;;;;;;;;;;6261980;28;20048;-62
2022/11/27 12:37:29;;;;;;;37.70;16.15;;;;;;;;;;6265507;28;20496;-77
2022/11/27 12:40:38;;;;;;;27.15;11.93;;;;;;;;;;6268104;28;20045;-67
2022/11/27 12:43:43;;;;;;;26.95;11.90;;;;;;;;;;6266578;28;20048;-69
2022/11/27 12:46:59;;;;;;;32.58;13.65;;;;;;;;;;6265830;28;20114;-61
2022/11/27 12:50:26;;;;;;;28.40;11.18;;;;;;;;;;6268742;28;20048;-67
2022/11/27 12:53:50;;;;;;;24.00;10.98;;;;;;;;;;6263192;28;20091;-72
2022/11/27 12:56:59;;;;;;;25.90;10.63;;;;;;;;;;6268702;28;20510;-68
2022/11/27 13:00:22;;;;;;;28.10;11.48;;;;;;;;;;6268023;28;20056;-68
2022/11/27 13:03:54;;;;;;;33.22;15.30;;;;;;;;;;6273431;28;20053;-69
2022/11/27 13:07:09;;;;;;;24.57;10.63;;;;;;;;;;6269729;28;20073;-75
2022/11/27 13:10:22;;;;;;;25.77;11.13;;;;;;;;;;6271465;28;20136;-67
2022/11/27 13:13:34;;;;;;;34.65;17.38;;;;;;;;;;6273691;28;20056;-71
2022/11/27 13:16:39;;;;;;;29.67;13.48;;;;;;;;;;6270461;28;20167;-61
2022/11/27 13:19:47;;;;;;;26.02;10.95;;;;;;;;;;6269427;28;20839;-72
2022/11/27 13:22:49;;;;;;;25.67;11.05;;;;;;;;;;6272343;28;20418;-69
2022/11/27 13:25:52;;;;;;;;;;;;;;;;;;6266275;28;20131;-73
2022/11/27 13:28:54;;;;;;;;;;;;;;;;;;6270155;28;19967;-68
2022/11/27 13:31:58;;;;;;;20.80;8.60;;;;;;;;;;6271723;28;19929;-70
2022/11/27 13:35:03;;;;;;;20.88;8.98;;;;;;;;;;6271626;28;20449;-71
2022/11/27 13:38:12;;;;;;;24.58;9.65;;;;;;;;;;6254685;28;20055;-74
2022/11/27 13:41:21;;;;;;;25.75;10.60;;;;;;;;;;6249810;28;20099;-76
2022/11/27 13:44:25;;;;;;;32.38;11.80;;;;;;;;;;6256015;28;20052;-71
2022/11/27 13:47:28;;;;;;;26.23;11.20;;;;;;;;;;6245032;28;20056;-73
2022/11/27 13:50:30;;;;;;;29.45;12.52;;;;;;;;;;6246428;28;20856;-74
2022/11/27 13:53:34;;;;;;;24.45;11.02;;;;;;;;;;6247858;28;20045;-76
2022/11/27 13:56:35;;;;;;;34.83;15.55;;;;;;;;;;6248240;28;20053;-75
2022/11/27 13:59:36;;;;;;;33.60;15.50;;;;;;;;;;6255548;28;20056;-61
2022/11/27 14:02:50;;;;;;;33.78;14.80;;;;;;;;;;6253907;28;20407;-65
2022/11/27 14:05:52;;;;;;;40.25;15.77;;;;;;;;;;6236410;28;20410;-66
2022/11/27 14:08:57;;;;;;;43.00;19.05;;;;;;;;;;6245726;28;20053;-65
2022/11/27 14:11:58;;;;;;;38.50;16.58;;;;;;;;;;6250434;28;20046;-63
2022/11/27 14:15:09;;;;;;;43.40;18.02;;;;;;;;;;6246845;28;20075;-60
2022/11/27 14:18:12;;;;;;;44.63;18.52;;;;;;;;;;6254613;28;20061;-61
2022/11/27 14:21:23;;;;;;;51.25;21.33;;;;;;;;;;6252348;28;20886;-65
2022/11/27 14:24:38;;;;;;;53.42;23.73;;;;;;;;;;6247076;28;20059;-62
2022/11/27 14:27:39;;;;;;;55.58;23.75;;;;;;;;;;6246886;28;20807;-59
2022/11/27 14:30:45;;;;;;;67.03;24.65;;;;;;;;;;6250685;28;20130;-60
2022/11/27 14:33:45;;;;;;;63.72;24.85;;;;;;;;;;6248089;28;20580;-61
2022/11/27 14:36:50;;;;;;;66.75;27.33;;;;;;;;;;6245114;28;20506;-61
2022/11/27 14:39:51;;;;;;;79.30;33.10;;;;;;;;;;6246951;28;20057;-60
2022/11/27 14:42:52;;;;;;;72.80;34.75;;;;;;;;;;6250421;28;20081;-62
2022/11/27 14:45:56;;;;;;;79.65;34.85;;;;;;;;;;6243978;28;20049;-63
2022/11/27 14:48:57;;;;;;;81.50;37.13;;;;;;;;;;6246715;28;20060;-60
2022/11/27 14:52:07;;;;;;;88.65;39.58;;;;;;;;;;6247425;28;20056;-59
2022/11/27 14:55:18;;;;;;;93.93;40.95;;;;;;;;;;6249510;28;20055;-61
2022/11/27 14:58:23;;;;;;;105.88;45.20;;;;;;;;;;6251942;28;20136;-64
2022/11/27 15:01:29;;;;;;;123.82;48.63;;;;;;;;;;6263710;28;20148;-63
2022/11/27 15:04:35;;;;;;;148.52;57.05;;;;;;;;;;6255992;28;20066;-60
2022/11/27 15:07:36;;;;;;;152.30;58.00;;;;;;;;;;6249694;28;20051;-63
2022/11/27 15:10:39;;;;;;;175.25;62.08;;;;;;;;;;6247515;28;20087;-64
2022/11/27 15:13:40;;;;;;;165.38;56.33;;;;;;;;;;6251707;28;20137;-66
2022/11/27 15:16:45;;;;;;;155.13;55.40;;;;;;;;;;6253347;28;20669;-70
2022/11/27 15:19:46;;;;;;;174.77;60.75;;;;;;;;;;6254564;28;20076;-65
2022/11/27 15:22:49;;;;;;;158.02;55.78;;;;;;;;;;6254971;28;20049;-68
2022/11/27 15:26:07;;;;;;;128.63;51.53;;;;;;;;;;6262658;28;20518;-62
2022/11/27 15:29:27;;;;;;;129.85;50.17;;;;;;;;;;6260703;28;20076;-66
2022/11/27 15:32:44;;;;;;;115.18;47.28;;;;;;;;;;6266845;28;20060;-64
2022/11/27 15:35:45;;;;;;;116.10;46.50;;;;;;;;;;6267087;28;20052;-65
2022/11/27 15:38:46;;;;;;;107.03;45.05;;;;;;;;;;6264475;28;20474;-59
2022/11/27 15:42:01;;;;;;;95.32;40.33;;;;;;;;;;6250837;28;20081;-63
2022/11/27 15:45:02;;;;;;;95.15;41.47;;;;;;;;;;6258189;28;20051;-64
2022/11/27 15:48:02;;;;;;;90.22;40.78;;;;;;;;;;6257590;28;20053;-60
2022/11/27 15:51:03;;;;;;;98.22;45.78;;;;;;;;;;6255943;28;20541;-59
2022/11/27 15:54:04;;;;;;;99.78;45.33;;;;;;;;;;6252095;28;20060;-61
2022/11/27 15:57:04;;;;;;;105.15;45.13;;;;;;;;;;6256123;28;20095;-71
2022/11/27 16:00:08;;;;;;;121.93;50.78;;;;;;;;;;6249831;28;20366;-68
2022/11/27 16:03:09;;;;;;;142.23;55.60;;;;;;;;;;6253407;28;20076;-62
2022/11/27 16:06:10;;;;;;;146.68;55.13;;;;;;;;;;6252437;28;20048;-61
2022/11/27 16:09:11;;;;;;;133.98;53.72;;;;;;;;;;6254674;28;20140;-63
2022/11/27 16:12:11;;;;;;;149.10;59.05;;;;;;;;;;6252374;28;20053;-61
2022/11/27 16:15:12;;;;;;;151.52;60.00;;;;;;;;;;6254445;28;20064;-62
2022/11/27 16:18:13;;;;;;;163.32;64.97;;;;;;;;;;6253424;28;20466;-74
2022/11/27 16:21:15;;;;;;;172.38;68.55;;;;;;;;;;6255118;28;20129;-66
2022/11/27 16:24:15;;;;;;;185.43;69.30;;;;;;;;;;6250483;28;20048;-66
2022/11/27 16:27:16;;;;;;;178.65;71.25;;;;;;;;;;6254225;28;20045;-61
2022/11/27 16:30:18;;;;;;;189.98;71.15;;;;;;;;;;6257311;28;20057;-60
2022/11/27 16:33:20;;;;;;;174.57;70.32;;;;;;;;;;6253600;28;20059;-68
2022/11/27 16:36:21;;;;;;;179.05;68.00;;;;;;;;;;6263338;28;20053;-60
2022/11/27 16:39:22;;;;;;;146.48;57.85;;;;;;;;;;6252101;28;20049;-69
2022/11/27 16:42:23;;;;;;;147.18;55.25;;;;;;;;;;6256014;28;20052;-64
2022/11/27 16:45:24;;;;;;;156.25;62.80;;;;;;;;;;6251837;28;20052;-68
2022/11/27 16:48:24;;;;;;;154.13;55.30;;;;;;;;;;6255335;28;20134;-69
2022/11/27 16:51:28;;;;;;;152.18;52.90;;;;;;;;;;6254440;28;20136;-60
2022/11/27 16:54:28;;;;;;;139.07;53.15;;;;;;;;;;6253353;28;20077;-60
2022/11/27 16:57:29;;;;;;;140.77;54.08;;;;;;;;;;6251679;28;20095;-65
2022/11/27 17:00:29;;;;;;;115.43;48.20;;;;;;;;;;6253945;28;20622;-66
2022/11/27 17:03:30;;;;;;;105.18;42.88;;;;;;;;;;6249255;28;20436;-69
2022/11/27 17:06:32;;;;;;;103.60;40.88;;;;;;;;;;6248318;28;20060;-68
2022/11/27 17:09:32;;;;;;;110.28;42.45;;;;;;;;;;6252403;28;20057;-64
2022/11/27 17:12:33;;;;;;;114.15;42.25;;;;;;;;;;6247860;28;20060;-62
2022/11/27 17:15:35;;;;;;;108.93;40.80;;;;;;;;;;6245833;28;20496;-71
2022/11/27 17:18:37;;;;;;;98.63;40.23;;;;;;;;;;6249353;28;20053;-64
2022/11/27 17:21:38;;;;;;;112.60;44.08;;;;;;;;;;6250572;28;20053;-70
2022/11/27 17:24:38;;;;;;;138.52;52.97;;;;;;;;;;6258718;28;20045;-66
2022/11/27 17:27:40;;;;;;;154.98;56.50;;;;;;;;;;6251436;28;20179;-64
2022/11/27 17:30:40;;;;;;;139.30;53.70;;;;;;;;;;6251500;28;20555;-71
2022/11/27 17:33:41;;;;;;;136.35;52.75;;;;;;;;;;6253394;28;20140;-73
2022/11/27 17:36:43;;;;;;;114.50;49.45;;;;;;;;;;6259105;28;20045;-68
2022/11/27 17:39:44;;;;;;;119.30;48.00;;;;;;;;;;6266785;28;20126;-67
2022/11/27 17:42:47;;;;;;;116.95;46.08;;;;;;;;;;6266116;28;20473;-61
2022/11/27 17:45:47;;;;;;;124.90;46.72;;;;;;;;;;6263279;28;20476;-71
2022/11/27 17:48:49;;;;;;;124.97;49.47;;;;;;;;;;6264564;28;20045;-72